Etusivu
METAR-TAF:

METAR-TAF

Lentoasemat :

Værøy, Norja

Heliport

Leveyspiiri: 67-39-16N, Pituuspiiri: 12-43-37E, korkeus merenpinnasta: 5 m

Tämänhetkinen sää

Tämä raportti tehtiin 3 tuntia ja 5 minuuttia sitten, kello 14.50 UTC
Tuuli 15 kn pohjoisesta/koillisesta
Lämpötila 1°C
Kosteus 93%
Ilmanpaine 1027 hPa
Näkyvyys 10 km tai enemmän
Muutamia pilviä 800 ft:n korkeudessa
Hajonneita pilviä 1300 ft:n korkeudessa
sadekuuroja näköpiirissä

METAR: ENVR 191450Z 03015KT 9999 VCSH FEW008 BKN013 01/00 Q1027

Aika: 18:55 (17:55 UTC)


TAF: puuttuu

Säähavainnot ja -ennusteet yli 4000 lentoasemalta (METAR- ja TAF-raportit).

Käytössä olevat sääasemat on merkitty karttaan keltaisilla ja punaisilla pisteillä.

Aseta hiiri pisteen päälle nähdäksesi sääaseman nimen.

Klikkaa sitten nähdäksesi säähavainnot ja -ennusteet.

Kartan vaihtaminen: klikkaa mustalla rastilla varustettuja vihreitä pisteitä, niin voit zoomata sisään; viivalla varustettua vihreää pistettä, niin voit zoomata ulos tai vihreitä nuolia, niin pääset viereisille kartoille.


METAR-TAF: